createdAt,value
2022-11-27T00:01:13.444Z,65.40
2022-11-27T00:05:16.230Z,65.60
2022-11-27T00:09:19.284Z,65.70
2022-11-27T00:13:22.000Z,65.70
2022-11-27T00:17:25.230Z,66.00
2022-11-27T00:21:30.999Z,66.10
2022-11-27T00:25:33.840Z,66.20
2022-11-27T00:29:36.646Z,66.20
2022-11-27T00:33:39.534Z,66.30
2022-11-27T00:37:42.622Z,66.20
2022-11-27T00:41:45.822Z,66.10
2022-11-27T00:45:51.909Z,66.00
2022-11-27T00:49:54.650Z,65.80
2022-11-27T00:53:57.900Z,65.40
2022-11-27T00:58:00.663Z,65.10
2022-11-27T01:02:03.573Z,64.00
2022-11-27T01:06:07.391Z,63.80
2022-11-27T01:10:10.671Z,63.40
2022-11-27T01:14:17.069Z,62.80
2022-11-27T01:18:20.102Z,62.60
2022-11-27T01:22:22.922Z,62.90
2022-11-27T01:26:25.788Z,62.80
2022-11-27T01:30:29.024Z,62.90
2022-11-27T01:34:32.172Z,63.00
2022-11-27T01:38:35.828Z,63.10
2022-11-27T01:42:38.640Z,63.30
2022-11-27T01:46:47.555Z,63.40
2022-11-27T01:50:50.332Z,63.60
2022-11-27T01:54:59.793Z,63.70
2022-11-27T01:59:03.627Z,63.90
2022-11-27T02:03:06.842Z,63.90
2022-11-27T02:07:09.955Z,64.10
2022-11-27T02:11:21.504Z,64.20
2022-11-27T02:15:38.810Z,64.10
2022-11-27T02:19:44.362Z,63.80
2022-11-27T02:24:13.398Z,63.80
2022-11-27T02:28:34.551Z,63.80
2022-11-27T02:32:59.104Z,63.80
2022-11-27T02:37:36.897Z,63.70
2022-11-27T02:41:49.674Z,63.80
2022-11-27T02:45:53.404Z,63.70
2022-11-27T02:49:57.790Z,63.70
2022-11-27T02:54:04.438Z,63.70
2022-11-27T02:58:13.440Z,63.50
2022-11-27T03:02:23.167Z,63.20
2022-11-27T03:06:33.713Z,63.20
2022-11-27T03:10:40.598Z,63.30
2022-11-27T03:14:44.228Z,63.40
2022-11-27T03:19:06.064Z,63.50
2022-11-27T03:23:09.112Z,63.40
2022-11-27T03:27:15.490Z,63.40
2022-11-27T03:31:18.609Z,63.40
2022-11-27T03:35:25.680Z,63.60
2022-11-27T03:39:30.090Z,63.60
2022-11-27T03:43:42.270Z,63.60
2022-11-27T03:47:53.126Z,63.60
2022-11-27T03:52:24.422Z,63.70
2022-11-27T03:56:45.195Z,63.80
2022-11-27T04:00:50.590Z,63.80
2022-11-27T04:04:53.376Z,64.00
2022-11-27T04:08:56.338Z,64.20
2022-11-27T04:12:59.080Z,64.30
2022-11-27T04:17:01.828Z,64.40
2022-11-27T04:21:04.800Z,64.40
2022-11-27T04:25:08.634Z,64.40
2022-11-27T04:29:11.629Z,64.40
2022-11-27T04:33:14.331Z,64.50
2022-11-27T04:37:17.270Z,64.50
2022-11-27T04:41:19.963Z,64.50
2022-11-27T04:45:22.760Z,64.60
2022-11-27T04:49:25.780Z,64.60
2022-11-27T04:53:28.576Z,64.70
2022-11-27T04:57:31.428Z,64.70
2022-11-27T05:01:34.263Z,64.70
2022-11-27T05:05:37.193Z,64.70
2022-11-27T05:09:40.054Z,64.70
2022-11-27T05:13:43.732Z,64.80
2022-11-27T05:17:46.609Z,64.70
2022-11-27T05:21:50.371Z,64.70
2022-11-27T05:25:54.087Z,64.60
2022-11-27T05:29:56.801Z,64.50
2022-11-27T05:33:59.792Z,64.70
2022-11-27T05:38:02.598Z,64.70
2022-11-27T05:42:05.409Z,64.60
2022-11-27T05:46:11.467Z,64.60
2022-11-27T05:50:14.608Z,64.60
2022-11-27T05:54:17.408Z,64.70
2022-11-27T05:58:20.219Z,65.00
2022-11-27T06:02:28.957Z,65.20
2022-11-27T06:06:32.234Z,65.50
2022-11-27T06:10:35.114Z,65.70
2022-11-27T06:14:39.424Z,65.90
2022-11-27T06:18:42.866Z,66.10
2022-11-27T06:22:45.895Z,66.30
2022-11-27T06:26:48.834Z,66.90
2022-11-27T06:30:51.494Z,67.10
2022-11-27T06:34:55.028Z,67.50
2022-11-27T06:38:57.761Z,67.60
2022-11-27T06:43:00.490Z,67.90
2022-11-27T06:47:03.195Z,67.90
2022-11-27T06:51:07.734Z,68.00
2022-11-27T06:55:10.447Z,68.30
2022-11-27T06:59:16.232Z,68.20
2022-11-27T07:03:19.133Z,68.70
2022-11-27T07:07:22.135Z,68.70
2022-11-27T07:11:27.988Z,68.90
2022-11-27T07:15:30.711Z,69.00
2022-11-27T07:19:33.538Z,69.10
2022-11-27T07:23:37.052Z,69.10
2022-11-27T07:27:39.855Z,69.30
2022-11-27T07:31:42.705Z,69.40
2022-11-27T07:35:45.403Z,69.60
2022-11-27T07:40:01.881Z,69.60
2022-11-27T07:44:05.910Z,69.40
2022-11-27T07:48:08.923Z,69.20
2022-11-27T07:52:11.840Z,69.00
2022-11-27T07:56:16.872Z,68.70
2022-11-27T08:00:20.196Z,68.40
2022-11-27T08:04:23.140Z,68.20
2022-11-27T08:08:26.070Z,67.80
2022-11-27T08:12:29.156Z,67.60
2022-11-27T08:16:32.838Z,66.90
2022-11-27T08:20:35.770Z,66.50
2022-11-27T08:24:39.204Z,66.30
2022-11-27T08:28:42.531Z,65.60
2022-11-27T08:32:45.292Z,64.80
2022-11-27T08:36:48.189Z,64.20
2022-11-27T08:40:59.063Z,62.90
2022-11-27T08:45:01.751Z,62.20
2022-11-27T08:49:04.653Z,61.60
2022-11-27T08:53:07.804Z,60.70
2022-11-27T08:57:10.560Z,60.00
2022-11-27T09:01:22.421Z,59.90
2022-11-27T09:05:25.463Z,59.40
2022-11-27T09:09:29.290Z,59.10
2022-11-27T09:13:32.964Z,58.50
2022-11-27T09:17:35.863Z,57.30
2022-11-27T09:21:39.642Z,57.30
2022-11-27T09:25:42.660Z,57.00
2022-11-27T09:29:45.738Z,56.20
2022-11-27T09:33:49.472Z,56.40
2022-11-27T09:37:52.196Z,54.40
2022-11-27T09:42:00.946Z,55.10
2022-11-27T09:46:09.867Z,54.00
2022-11-27T09:50:26.135Z,54.00
2022-11-27T09:54:41.250Z,54.20
2022-11-27T09:58:57.980Z,52.90
2022-11-27T10:03:00.979Z,51.60
2022-11-27T10:07:19.248Z,51.70
2022-11-27T10:11:42.923Z,51.90
2022-11-27T10:15:56.909Z,52.30
2022-11-27T10:20:14.265Z,51.80
2022-11-27T10:24:36.853Z,51.50
2022-11-27T10:28:52.454Z,51.40
2022-11-27T10:32:57.487Z,51.10
2022-11-27T10:37:05.665Z,50.80
2022-11-27T10:41:47.623Z,50.70
2022-11-27T10:45:46.011Z,50.90
2022-11-27T10:49:48.780Z,50.00
2022-11-27T10:53:54.625Z,50.00
2022-11-27T10:58:15.547Z,49.90
2022-11-27T11:02:30.556Z,49.50
2022-11-27T11:06:40.470Z,49.10
2022-11-27T11:10:52.103Z,49.50
2022-11-27T11:14:59.944Z,48.30
2022-11-27T11:19:03.607Z,48.50
2022-11-27T11:23:06.874Z,48.70
2022-11-27T11:27:16.200Z,48.70
2022-11-27T11:31:29.622Z,47.80
2022-11-27T11:35:35.607Z,48.10
2022-11-27T11:39:45.471Z,47.90
2022-11-27T11:43:58.396Z,48.10
2022-11-27T11:48:23.009Z,48.70
2022-11-27T11:52:40.743Z,48.80
2022-11-27T11:56:49.667Z,48.90
2022-11-27T12:01:26.115Z,48.50
2022-11-27T12:05:47.894Z,48.40
2022-11-27T12:09:57.622Z,47.50
2022-11-27T12:14:22.177Z,47.80
2022-11-27T12:18:49.220Z,47.70
2022-11-27T12:23:16.620Z,47.60
2022-11-27T12:28:01.743Z,46.60
2022-11-27T12:32:31.116Z,47.40
2022-11-27T12:37:11.080Z,46.70
2022-11-27T12:41:48.716Z,46.80
2022-11-27T12:46:12.023Z,46.70
2022-11-27T12:50:25.982Z,47.10
2022-11-27T12:54:36.946Z,46.90
2022-11-27T12:58:44.905Z,47.20
2022-11-27T13:03:11.275Z,46.80
2022-11-27T13:07:44.036Z,46.60
2022-11-27T13:11:49.519Z,46.60
2022-11-27T13:16:01.065Z,47.60
2022-11-27T13:20:06.088Z,47.30
2022-11-27T13:24:13.674Z,47.20
2022-11-27T13:28:41.901Z,47.30
2022-11-27T13:32:53.894Z,47.40
2022-11-27T13:37:08.774Z,47.30
2022-11-27T13:41:22.386Z,47.20
2022-11-27T13:45:32.597Z,47.10
2022-11-27T13:49:38.080Z,47.00
2022-11-27T13:53:42.617Z,47.60
2022-11-27T13:57:53.337Z,47.60
2022-11-27T14:02:00.096Z,47.30
2022-11-27T14:06:02.742Z,47.60
2022-11-27T14:10:27.568Z,48.40
2022-11-27T14:14:31.572Z,47.40
2022-11-27T14:18:35.226Z,46.90
2022-11-27T14:27:22.957Z,47.90
2022-11-27T14:31:35.313Z,48.00
2022-11-27T14:35:40.420Z,47.80
2022-11-27T14:39:43.624Z,48.10
2022-11-27T14:43:46.613Z,48.10
2022-11-27T14:47:52.703Z,48.30
2022-11-27T14:52:05.839Z,48.20
2022-11-27T14:56:09.234Z,48.40
2022-11-27T15:00:15.805Z,48.50
2022-11-27T15:04:37.804Z,48.50
2022-11-27T15:08:40.532Z,48.40
2022-11-27T15:12:47.768Z,48.90
2022-11-27T15:16:52.374Z,48.90
2022-11-27T15:20:57.453Z,49.50
2022-11-27T15:25:02.638Z,49.70
2022-11-27T15:29:44.553Z,50.20
2022-11-27T15:33:58.013Z,50.00
2022-11-27T15:38:08.540Z,50.70
2022-11-27T15:42:11.554Z,51.60
2022-11-27T15:46:15.343Z,52.50
2022-11-27T15:50:18.384Z,53.10
2022-11-27T15:54:21.200Z,53.60
2022-11-27T15:58:24.187Z,53.80
2022-11-27T16:02:30.497Z,53.70
2022-11-27T16:06:39.340Z,53.60
2022-11-27T16:10:43.064Z,53.60
2022-11-27T16:14:46.030Z,53.70
2022-11-27T16:18:49.184Z,53.80
2022-11-27T16:22:52.197Z,53.90
2022-11-27T16:26:55.117Z,54.10
2022-11-27T16:31:01.421Z,54.50
2022-11-27T16:35:04.556Z,54.80
2022-11-27T16:39:07.270Z,54.80
2022-11-27T16:43:10.820Z,55.00
2022-11-27T16:47:15.956Z,55.10
2022-11-27T16:51:34.123Z,55.20
2022-11-27T16:55:37.388Z,55.40
2022-11-27T16:59:40.332Z,55.50
2022-11-27T17:03:44.355Z,55.70
2022-11-27T17:07:47.863Z,55.80
2022-11-27T17:11:50.826Z,55.90
2022-11-27T17:15:54.501Z,56.00
2022-11-27T17:20:00.653Z,56.10
2022-11-27T17:24:14.293Z,56.30
2022-11-27T17:28:19.965Z,56.70
2022-11-27T17:32:24.997Z,57.00
2022-11-27T17:36:36.488Z,57.30
2022-11-27T17:40:40.192Z,57.30
2022-11-27T17:44:42.917Z,57.40
2022-11-27T17:48:46.104Z,57.50
2022-11-27T17:52:52.106Z,57.60
2022-11-27T17:56:55.143Z,57.70
2022-11-27T18:00:58.460Z,57.70
2022-11-27T18:05:02.228Z,57.80
2022-11-27T18:09:05.620Z,57.80
2022-11-27T18:13:08.941Z,57.90
2022-11-27T18:17:17.094Z,57.90
2022-11-27T18:21:21.373Z,58.00
2022-11-27T18:25:24.195Z,58.10
2022-11-27T18:29:28.075Z,58.00
2022-11-27T18:33:31.701Z,58.00
2022-11-27T18:37:35.485Z,58.10
2022-11-27T18:41:38.334Z,58.10
2022-11-27T18:45:41.188Z,58.00
2022-11-27T18:49:44.622Z,58.00
2022-11-27T18:53:50.341Z,58.10
2022-11-27T18:57:54.186Z,58.10
2022-11-27T19:01:57.182Z,58.20
2022-11-27T19:06:01.828Z,58.20
2022-11-27T19:10:05.507Z,58.30
2022-11-27T19:14:10.160Z,58.20
2022-11-27T19:18:13.902Z,58.20
2022-11-27T19:22:16.983Z,58.20
2022-11-27T19:26:23.715Z,58.30
2022-11-27T19:30:32.716Z,58.30
2022-11-27T19:34:40.067Z,58.20
2022-11-27T19:38:43.774Z,58.10
2022-11-27T19:42:46.719Z,58.20
2022-11-27T19:46:49.723Z,58.20
2022-11-27T19:50:53.463Z,58.30
2022-11-27T19:54:56.456Z,58.50
2022-11-27T19:59:00.612Z,58.60
2022-11-27T20:03:04.251Z,58.90
2022-11-27T20:07:08.241Z,58.90
2022-11-27T20:11:14.037Z,59.00
2022-11-27T20:15:17.722Z,59.10
2022-11-27T20:19:20.607Z,59.10
2022-11-27T20:23:23.355Z,59.30
2022-11-27T20:27:28.618Z,59.40
2022-11-27T20:31:33.299Z,59.40
2022-11-27T20:35:40.673Z,59.50
2022-11-27T20:39:43.754Z,59.40
2022-11-27T20:43:47.497Z,59.40
2022-11-27T20:47:50.267Z,59.50
2022-11-27T20:51:53.567Z,59.70
2022-11-27T20:56:03.066Z,60.00
2022-11-27T21:04:18.858Z,60.60
2022-11-27T21:40:52.031Z,60.10
2022-11-27T21:44:54.944Z,62.60
2022-11-27T21:49:00.780Z,63.40
2022-11-27T21:53:05.904Z,63.90
2022-11-27T21:57:08.669Z,64.10
2022-11-27T22:01:14.278Z,64.40
2022-11-27T22:05:18.625Z,64.60
2022-11-27T22:09:21.312Z,61.60
2022-11-27T22:13:24.295Z,62.10
2022-11-27T22:17:28.284Z,64.30
2022-11-27T22:21:33.019Z,65.00
2022-11-27T22:25:35.865Z,65.50
2022-11-27T22:29:39.446Z,65.60
2022-11-27T22:33:43.672Z,65.90
2022-11-27T22:37:47.094Z,66.50
2022-11-27T22:41:49.878Z,66.70
2022-11-27T22:45:52.820Z,67.10
2022-11-27T22:49:55.739Z,67.00
2022-11-27T22:53:59.157Z,67.10
2022-11-27T22:58:02.216Z,67.20
2022-11-27T23:02:05.603Z,67.30
2022-11-27T23:06:16.521Z,67.40
2022-11-27T23:10:19.203Z,67.80
2022-11-27T23:14:22.160Z,67.40
2022-11-27T23:18:25.237Z,67.40
2022-11-27T23:22:28.157Z,67.50
2022-11-27T23:26:30.953Z,67.60
2022-11-27T23:30:35.116Z,67.70
2022-11-27T23:34:37.844Z,67.90
2022-11-27T23:38:43.294Z,68.20
2022-11-27T23:42:46.018Z,68.20
2022-11-27T23:46:48.704Z,68.30
2022-11-27T23:50:51.764Z,68.30
2022-11-27T23:54:54.458Z,68.20
2022-11-27T23:58:57.888Z,68.10
